createdAt,value
2019-05-28T00:01:00.192Z,2.50
2019-05-28T00:03:45.944Z,2.40
2019-05-28T00:06:32.008Z,2.13
2019-05-28T00:09:18.159Z,2.20
2019-05-28T00:12:04.329Z,2.30
2019-05-28T00:14:50.001Z,2.00
2019-05-28T00:17:36.110Z,2.37
2019-05-28T00:20:22.276Z,2.10
2019-05-28T00:23:08.351Z,2.10
2019-05-28T00:25:54.171Z,2.03
2019-05-28T00:28:40.365Z,2.10
2019-05-28T00:31:26.452Z,2.00
2019-05-28T00:34:12.668Z,2.07
2019-05-28T00:36:58.796Z,1.90
2019-05-28T00:39:44.878Z,2.10
2019-05-28T00:42:30.539Z,2.67
2019-05-28T00:45:16.320Z,2.10
2019-05-28T00:48:02.460Z,2.20
2019-05-28T00:50:48.488Z,2.20
2019-05-28T00:53:34.229Z,2.30
2019-05-28T00:56:20.572Z,2.30
2019-05-28T00:59:06.640Z,2.07
2019-05-28T01:01:52.615Z,2.33
2019-05-28T01:04:38.312Z,2.33
2019-05-28T01:07:23.907Z,2.20
2019-05-28T01:10:10.192Z,2.40
2019-05-28T01:12:56.364Z,2.40
2019-05-28T01:15:42.480Z,2.17
2019-05-28T01:18:28.663Z,2.20
2019-05-28T01:21:14.839Z,2.37
2019-05-28T01:24:00.956Z,2.37
2019-05-28T01:26:47.150Z,2.30
2019-05-28T01:29:33.250Z,2.10
2019-05-28T01:32:19.348Z,2.63
2019-05-28T01:35:05.823Z,2.67
2019-05-28T01:37:51.451Z,2.57
2019-05-28T01:40:37.335Z,2.53
2019-05-28T01:43:23.372Z,2.60
2019-05-28T01:46:09.051Z,2.40
2019-05-28T01:48:55.228Z,2.43
2019-05-28T01:51:41.347Z,2.67
2019-05-28T01:54:26.988Z,2.43
2019-05-28T01:57:12.701Z,2.53
2019-05-28T01:59:58.763Z,2.80
2019-05-28T02:02:44.624Z,2.67
2019-05-28T02:05:30.712Z,2.80
2019-05-28T02:08:16.375Z,2.40
2019-05-28T02:11:01.983Z,2.53
2019-05-28T02:13:48.083Z,2.70
2019-05-28T02:16:33.812Z,3.00
2019-05-28T02:19:19.519Z,2.97
2019-05-28T02:22:05.608Z,2.57
2019-05-28T02:24:51.863Z,2.93
2019-05-28T02:27:37.966Z,3.13
2019-05-28T02:30:24.310Z,2.97
2019-05-28T02:33:10.340Z,3.03
2019-05-28T02:35:56.452Z,3.03
2019-05-28T02:38:42.596Z,3.23
2019-05-28T02:41:28.194Z,2.60
2019-05-28T02:44:14.316Z,2.70
2019-05-28T02:47:00.596Z,2.60
2019-05-28T02:49:46.812Z,3.13
2019-05-28T02:52:33.257Z,3.23
2019-05-28T02:55:19.151Z,2.27
2019-05-28T02:58:04.728Z,3.00
2019-05-28T03:00:51.095Z,2.70
2019-05-28T03:03:37.024Z,3.90
2019-05-28T03:06:23.175Z,2.67
2019-05-28T03:09:09.409Z,2.87
2019-05-28T03:11:55.525Z,3.00
2019-05-28T03:14:41.651Z,3.20
2019-05-28T03:17:28.888Z,2.90
2019-05-28T03:20:15.008Z,2.73
2019-05-28T03:23:01.324Z,2.97
2019-05-28T03:25:47.252Z,3.03
2019-05-28T03:28:32.829Z,3.00
2019-05-28T03:31:18.937Z,3.00
2019-05-28T03:34:04.969Z,2.67
2019-05-28T03:36:52.427Z,2.80
2019-05-28T03:39:38.719Z,2.60
2019-05-28T03:42:24.637Z,2.97
2019-05-28T03:45:10.277Z,3.10
2019-05-28T03:47:56.588Z,2.50
2019-05-28T03:50:42.116Z,3.10
2019-05-28T03:53:28.263Z,3.10
2019-05-28T03:56:14.468Z,3.27
2019-05-28T03:59:00.544Z,3.00
2019-05-28T04:01:46.337Z,2.63
2019-05-28T04:04:32.407Z,2.80
2019-05-28T04:07:18.484Z,2.67
2019-05-28T04:10:04.721Z,3.33
2019-05-28T04:12:50.846Z,2.57
2019-05-28T04:15:37.065Z,3.40
2019-05-28T04:18:23.325Z,3.47
2019-05-28T04:21:09.416Z,2.70
2019-05-28T04:23:55.232Z,2.70
2019-05-28T04:26:41.229Z,3.10
2019-05-28T04:29:27.281Z,3.03
2019-05-28T04:32:13.060Z,2.73
2019-05-28T04:34:59.184Z,3.30
2019-05-28T04:37:45.367Z,3.47
2019-05-28T04:40:31.636Z,2.87
2019-05-28T04:43:17.756Z,3.40
2019-05-28T04:46:04.056Z,2.87
2019-05-28T04:48:49.874Z,3.30
2019-05-28T04:51:35.931Z,3.20
2019-05-28T04:54:22.244Z,3.10
2019-05-28T04:57:08.379Z,3.30
2019-05-28T04:59:54.486Z,3.27
2019-05-28T05:02:57.770Z,3.33
2019-05-28T05:05:28.573Z,3.20
2019-05-28T05:08:14.212Z,3.00
2019-05-28T05:11:00.496Z,2.30
2019-05-28T05:13:46.727Z,2.33
2019-05-28T05:16:32.788Z,2.47
2019-05-28T05:19:18.988Z,2.40
2019-05-28T05:22:05.054Z,2.30
2019-05-28T05:24:51.232Z,2.73
2019-05-28T05:27:36.820Z,2.60
2019-05-28T05:30:22.950Z,2.97
2019-05-28T05:33:19.897Z,2.77
2019-05-28T05:35:56.696Z,2.60
2019-05-28T05:38:42.777Z,2.73
2019-05-28T05:41:29.106Z,2.60
2019-05-28T05:44:15.240Z,2.70
2019-05-28T05:47:01.508Z,2.70
2019-05-28T05:49:47.504Z,2.33
2019-05-28T05:52:33.071Z,2.27
2019-05-28T05:55:19.483Z,2.70
2019-05-28T05:58:05.319Z,2.20
2019-05-28T06:00:51.420Z,2.30
2019-05-28T06:03:40.620Z,2.13
2019-05-28T06:06:25.304Z,2.47
2019-05-28T06:09:10.860Z,2.47
2019-05-28T06:11:57.211Z,2.13
2019-05-28T06:14:43.387Z,2.40
2019-05-28T06:17:29.517Z,2.70
2019-05-28T06:20:15.783Z,2.20
2019-05-28T06:23:01.908Z,2.20
2019-05-28T06:25:48.086Z,2.30
2019-05-28T06:28:33.681Z,2.27
2019-05-28T06:31:19.314Z,2.63
2019-05-28T06:34:05.469Z,2.20
2019-05-28T06:36:51.615Z,2.27
2019-05-28T06:39:37.712Z,1.70
2019-05-28T06:42:24.080Z,2.43
2019-05-28T06:45:10.266Z,2.30
2019-05-28T06:47:56.554Z,2.53
2019-05-28T06:50:42.404Z,2.03
2019-05-28T06:53:28.589Z,2.00
2019-05-28T06:56:14.752Z,2.30
2019-05-28T06:59:00.748Z,2.00
2019-05-28T07:01:46.934Z,2.07
2019-05-28T07:04:33.321Z,2.40
2019-05-28T07:07:19.469Z,2.30
2019-05-28T07:10:05.764Z,1.90
2019-05-28T07:12:51.836Z,2.13
2019-05-28T07:15:37.938Z,1.80
2019-05-28T07:18:24.096Z,2.43
2019-05-28T07:21:09.749Z,2.30
2019-05-28T07:23:56.060Z,2.03
2019-05-28T07:26:42.215Z,2.63
2019-05-28T07:29:28.627Z,2.00
2019-05-28T07:32:14.473Z,2.00
2019-05-28T07:35:00.781Z,2.27
2019-05-28T07:37:46.740Z,2.40
2019-05-28T07:40:32.529Z,2.20
2019-05-28T07:43:18.447Z,2.20
2019-05-28T07:46:04.476Z,2.53
2019-05-28T07:48:50.263Z,2.10
2019-05-28T07:51:36.273Z,2.37
2019-05-28T07:54:22.360Z,2.10
2019-05-28T07:57:08.571Z,2.03
2019-05-28T07:59:54.672Z,2.30
2019-05-28T08:02:40.892Z,2.13
2019-05-28T08:05:27.052Z,2.00
2019-05-28T08:08:15.321Z,2.10
2019-05-28T08:11:01.026Z,2.10
2019-05-28T08:13:47.152Z,1.90
2019-05-28T08:16:33.312Z,2.00
2019-05-28T08:19:19.562Z,2.40
2019-05-28T08:22:05.649Z,2.40
2019-05-28T08:24:54.818Z,2.00
2019-05-28T08:27:39.423Z,2.17
2019-05-28T08:30:26.696Z,1.87
2019-05-28T08:33:12.596Z,2.40
2019-05-28T08:35:58.740Z,1.83
2019-05-28T08:38:44.816Z,1.97
2019-05-28T08:41:30.916Z,1.70
2019-05-28T08:44:17.295Z,2.00
2019-05-28T08:47:03.410Z,2.27
2019-05-28T08:49:49.561Z,1.77
2019-05-28T08:52:35.867Z,2.00
2019-05-28T08:55:22.686Z,2.17
2019-05-28T08:58:08.820Z,1.90
2019-05-28T09:00:55.009Z,2.40
2019-05-28T09:03:41.001Z,1.90
2019-05-28T09:06:27.373Z,1.83
2019-05-28T09:09:13.368Z,1.63
2019-05-28T09:11:59.540Z,1.50
2019-05-28T09:14:55.753Z,1.80
2019-05-28T09:17:33.655Z,1.60
2019-05-28T09:20:19.508Z,1.80
2019-05-28T09:23:05.352Z,1.80
2019-05-28T09:25:51.464Z,1.97
2019-05-28T09:28:37.209Z,1.77
2019-05-28T09:31:23.395Z,1.90
2019-05-28T09:34:09.500Z,1.93
2019-05-28T09:36:55.762Z,2.03
2019-05-28T09:39:41.763Z,1.90
2019-05-28T09:42:27.396Z,2.13
2019-05-28T09:45:22.400Z,1.90
2019-05-28T09:48:01.340Z,1.93
2019-05-28T09:50:47.442Z,1.87
2019-05-28T09:53:35.011Z,1.90
2019-05-28T09:56:20.951Z,2.00
2019-05-28T09:59:07.063Z,1.60
2019-05-28T10:01:53.408Z,1.50
2019-05-28T10:04:49.440Z,1.93
2019-05-28T10:07:26.960Z,1.90
2019-05-28T10:10:13.356Z,1.63
2019-05-28T10:12:59.432Z,2.10
2019-05-28T10:15:45.814Z,2.00
2019-05-28T10:18:32.024Z,2.10
2019-05-28T10:21:19.234Z,2.10
2019-05-28T10:24:05.245Z,1.93
2019-05-28T10:26:51.481Z,1.60
2019-05-28T10:29:37.600Z,1.50
2019-05-28T10:32:23.372Z,1.87
2019-05-28T10:35:09.599Z,1.60
2019-05-28T10:37:55.599Z,1.70
2019-05-28T10:40:41.714Z,1.93
2019-05-28T10:43:27.919Z,1.70
2019-05-28T10:46:14.297Z,1.80
2019-05-28T10:49:00.320Z,1.87
2019-05-28T10:51:45.892Z,1.90
2019-05-28T10:54:32.076Z,2.10
2019-05-28T10:57:17.624Z,2.17
2019-05-28T11:00:04.301Z,2.27
2019-05-28T11:02:50.494Z,1.90
2019-05-28T11:05:36.528Z,2.00
2019-05-28T11:08:22.790Z,2.17
2019-05-28T11:11:09.155Z,1.90
2019-05-28T11:13:55.055Z,2.30
2019-05-28T11:16:41.076Z,2.07
2019-05-28T11:19:27.366Z,2.23
2019-05-28T11:22:13.440Z,2.00
2019-05-28T11:24:59.625Z,2.00
2019-05-28T11:27:45.743Z,1.83
2019-05-28T11:30:31.889Z,1.67
2019-05-28T11:33:18.260Z,1.70
2019-05-28T11:36:03.903Z,1.70
2019-05-28T11:38:50.140Z,1.60
2019-05-28T11:41:42.208Z,1.80
2019-05-28T11:44:23.900Z,1.50
2019-05-28T11:47:09.618Z,1.57
2019-05-28T11:49:55.905Z,1.93
2019-05-28T11:52:41.912Z,1.60
2019-05-28T11:55:27.697Z,1.63
2019-05-28T11:58:13.705Z,1.73
2019-05-28T12:01:00.059Z,1.83
2019-05-28T12:03:45.948Z,1.73
2019-05-28T12:06:37.917Z,1.90
2019-05-28T12:09:19.784Z,1.90
2019-05-28T12:12:05.987Z,1.90
2019-05-28T12:14:52.124Z,2.53
2019-05-28T12:17:43.613Z,2.00
2019-05-28T12:20:26.781Z,2.00
2019-05-28T12:23:12.716Z,1.70
2019-05-28T12:25:58.566Z,2.07
2019-05-28T12:28:44.753Z,1.90
2019-05-28T12:31:31.184Z,2.20
2019-05-28T12:34:17.161Z,1.73
2019-05-28T12:37:03.348Z,1.90
2019-05-28T12:39:49.413Z,1.80
2019-05-28T12:42:35.112Z,1.80
2019-05-28T12:45:34.349Z,1.80
2019-05-28T12:48:12.493Z,1.60
2019-05-28T12:50:56.588Z,1.70
2019-05-28T12:53:50.401Z,1.70
2019-05-28T12:56:30.450Z,1.67
2019-05-28T12:59:16.596Z,1.70
2019-05-28T13:02:03.062Z,1.50
2019-05-28T13:04:48.885Z,1.40
2019-05-28T13:07:34.959Z,1.83
2019-05-28T13:10:21.141Z,1.57
2019-05-28T13:13:07.052Z,1.27
2019-05-28T13:15:53.360Z,1.43
2019-05-28T13:18:39.412Z,1.73
2019-05-28T13:21:25.753Z,1.53
2019-05-28T13:24:11.844Z,1.50
2019-05-28T13:26:57.836Z,1.30
2019-05-28T13:29:43.577Z,1.50
2019-05-28T13:32:29.697Z,1.70
2019-05-28T13:35:17.577Z,1.23
2019-05-28T13:38:03.670Z,1.70
2019-05-28T13:40:49.760Z,1.47
2019-05-28T13:43:35.798Z,1.27
2019-05-28T13:46:22.109Z,1.33
2019-05-28T13:49:08.317Z,1.47
2019-05-28T13:52:10.941Z,1.17
2019-05-28T13:54:42.181Z,1.50
2019-05-28T13:57:27.733Z,1.50
2019-05-28T14:00:14.206Z,1.37
2019-05-28T14:03:00.196Z,1.73
2019-05-28T14:05:46.199Z,1.60
2019-05-28T14:08:45.762Z,1.40
2019-05-28T14:11:19.752Z,1.43
2019-05-28T14:14:05.922Z,1.60
2019-05-28T14:16:51.996Z,1.47
2019-05-28T14:19:38.049Z,1.60
2019-05-28T14:22:33.503Z,1.53
2019-05-28T14:25:13.889Z,1.70
2019-05-28T14:27:59.879Z,1.50
2019-05-28T14:30:59.379Z,1.50
2019-05-28T14:33:33.609Z,1.40
2019-05-28T14:36:19.688Z,1.53
2019-05-28T14:39:06.898Z,1.90
2019-05-28T14:41:53.369Z,1.70
2019-05-28T14:44:42.944Z,1.57
2019-05-28T14:47:27.084Z,1.80
2019-05-28T14:50:13.276Z,1.47
2019-05-28T14:52:59.650Z,1.60
2019-05-28T14:55:45.434Z,1.70
2019-05-28T14:58:31.070Z,1.60
2019-05-28T15:01:17.160Z,1.60
2019-05-28T15:04:03.608Z,1.43
2019-05-28T15:06:49.590Z,1.70
2019-05-28T15:09:35.760Z,1.70
2019-05-28T15:12:22.017Z,1.60
2019-05-28T15:15:09.975Z,1.70
2019-05-28T15:17:56.143Z,1.70
2019-05-28T15:20:41.984Z,1.67
2019-05-28T15:23:28.242Z,1.60
2019-05-28T15:26:14.297Z,2.20
2019-05-28T15:29:00.188Z,1.40
2019-05-28T15:31:46.210Z,1.63
2019-05-28T15:34:32.329Z,1.60
2019-05-28T15:37:18.599Z,1.50
2019-05-28T15:40:04.932Z,1.90
2019-05-28T15:43:04.968Z,1.70
2019-05-28T15:45:38.730Z,1.60
2019-05-28T15:48:24.829Z,1.60
2019-05-28T15:51:11.088Z,1.60
2019-05-28T15:53:57.334Z,1.53
2019-05-28T15:56:43.492Z,1.50
2019-05-28T15:59:29.457Z,1.70
2019-05-28T16:02:15.601Z,1.70
2019-05-28T16:05:01.749Z,1.60
2019-05-28T16:07:48.022Z,1.60
2019-05-28T16:10:34.127Z,1.93
2019-05-28T16:13:20.207Z,1.93
2019-05-28T16:16:07.833Z,1.80
2019-05-28T16:18:53.929Z,1.87
2019-05-28T16:21:40.104Z,1.70
2019-05-28T16:24:26.399Z,1.67
2019-05-28T16:27:12.477Z,1.97
2019-05-28T16:29:58.112Z,2.07
2019-05-28T16:32:43.793Z,2.03
2019-05-28T16:35:29.837Z,2.07
2019-05-28T16:38:16.048Z,1.87
2019-05-28T16:41:01.731Z,1.67
2019-05-28T16:43:47.793Z,1.97
2019-05-28T16:46:34.179Z,1.70
2019-05-28T16:49:20.568Z,1.83
2019-05-28T16:52:06.504Z,1.93
2019-05-28T16:54:52.740Z,2.00
2019-05-28T16:57:38.433Z,1.53
2019-05-28T17:00:24.720Z,1.80
2019-05-28T17:03:10.705Z,1.70
2019-05-28T17:05:56.776Z,1.90
2019-05-28T17:08:43.110Z,2.23
2019-05-28T17:11:29.383Z,1.80
2019-05-28T17:14:15.452Z,1.67
2019-05-28T17:17:03.073Z,2.13
2019-05-28T17:19:49.226Z,1.70
2019-05-28T17:22:35.381Z,1.77
2019-05-28T17:25:21.244Z,1.87
2019-05-28T17:28:07.362Z,2.13
2019-05-28T17:30:53.146Z,1.83
2019-05-28T17:33:39.472Z,2.33
2019-05-28T17:36:25.549Z,1.83
2019-05-28T17:39:11.564Z,1.70
2019-05-28T17:41:57.488Z,1.60
2019-05-28T17:44:47.027Z,1.80
2019-05-28T17:47:31.508Z,2.10
2019-05-28T17:50:17.715Z,1.97
2019-05-28T17:53:03.861Z,1.90
2019-05-28T17:55:50.116Z,1.80
2019-05-28T17:58:36.176Z,2.07
2019-05-28T18:01:22.421Z,1.60
2019-05-28T18:04:08.604Z,1.90
2019-05-28T18:06:54.689Z,2.10
2019-05-28T18:09:40.948Z,1.40
2019-05-28T18:12:27.083Z,1.40
2019-05-28T18:15:13.164Z,2.10
2019-05-28T18:17:58.917Z,1.77
2019-05-28T18:20:45.112Z,1.80
2019-05-28T18:23:31.360Z,1.70
2019-05-28T18:26:17.629Z,1.90
2019-05-28T18:29:03.693Z,1.90
2019-05-28T18:31:49.839Z,2.23
2019-05-28T18:34:36.084Z,1.80
2019-05-28T18:37:21.724Z,1.93
2019-05-28T18:40:08.284Z,2.30
2019-05-28T18:42:54.093Z,1.97
2019-05-28T18:45:40.231Z,2.10
2019-05-28T18:48:27.190Z,2.20
2019-05-28T18:51:13.207Z,2.50
2019-05-28T18:53:59.184Z,2.10
2019-05-28T18:56:45.384Z,2.13
2019-05-28T18:59:31.045Z,2.30
2019-05-28T19:02:18.612Z,2.20
2019-05-28T19:05:04.822Z,2.30
2019-05-28T19:07:50.972Z,2.20
2019-05-28T19:10:37.255Z,2.13
2019-05-28T19:13:23.312Z,2.30
2019-05-28T19:16:08.832Z,2.40
2019-05-28T19:18:55.398Z,2.47
2019-05-28T19:21:41.333Z,2.40
2019-05-28T19:24:27.467Z,2.20
2019-05-28T19:27:13.744Z,2.37
2019-05-28T19:29:59.864Z,2.77
2019-05-28T19:32:45.524Z,2.03
2019-05-28T19:35:31.953Z,2.53
2019-05-28T19:38:18.289Z,2.57
2019-05-28T19:41:04.076Z,2.90
2019-05-28T19:43:49.626Z,2.57
2019-05-28T19:46:35.688Z,2.53
2019-05-28T19:49:21.941Z,2.80
2019-05-28T19:52:07.955Z,2.63
2019-05-28T19:54:54.105Z,2.50
2019-05-28T19:57:39.705Z,2.43
2019-05-28T20:00:25.373Z,2.70
2019-05-28T20:03:11.121Z,2.50
2019-05-28T20:05:56.903Z,2.70
2019-05-28T20:08:43.038Z,2.80
2019-05-28T20:11:29.268Z,2.83
2019-05-28T20:14:15.352Z,2.47
2019-05-28T20:17:01.472Z,3.20
2019-05-28T20:19:47.433Z,2.80
2019-05-28T20:22:33.196Z,2.53
2019-05-28T20:25:19.012Z,2.77
2019-05-28T20:28:05.128Z,2.83
2019-05-28T20:30:51.445Z,2.80
2019-05-28T20:33:37.514Z,2.70
2019-05-28T20:36:23.608Z,2.83
2019-05-28T20:39:09.989Z,3.00
2019-05-28T20:41:55.964Z,2.73
2019-05-28T20:44:41.600Z,2.83
2019-05-28T20:47:27.792Z,2.90
2019-05-28T20:50:13.996Z,2.83
2019-05-28T20:53:00.096Z,2.70
2019-05-28T20:55:46.192Z,3.00
2019-05-28T20:58:40.166Z,3.20
2019-05-28T21:01:19.910Z,3.10
2019-05-28T21:04:05.684Z,3.03
2019-05-28T21:06:52.106Z,3.10
2019-05-28T21:09:37.952Z,3.13
2019-05-28T21:12:23.696Z,2.83
2019-05-28T21:15:10.460Z,2.97
2019-05-28T21:17:57.320Z,3.37
2019-05-28T21:20:43.620Z,3.47
2019-05-28T21:23:29.136Z,2.83
2019-05-28T21:26:14.905Z,3.30
2019-05-28T21:29:01.187Z,3.53
2019-05-28T21:31:47.293Z,3.40
2019-05-28T21:34:33.560Z,3.70
2019-05-28T21:37:19.751Z,3.23
2019-05-28T21:40:05.760Z,3.27
2019-05-28T21:43:02.395Z,3.23
2019-05-28T21:45:39.362Z,3.60
2019-05-28T21:48:25.528Z,3.63
2019-05-28T21:51:11.101Z,3.63
2019-05-28T21:53:57.204Z,3.40
2019-05-28T21:56:42.864Z,3.70
2019-05-28T21:59:30.629Z,3.33
2019-05-28T22:02:16.616Z,3.93
2019-05-28T22:05:07.662Z,3.70
2019-05-28T22:07:50.950Z,3.40
2019-05-28T22:10:37.040Z,4.27
2019-05-28T22:13:23.262Z,3.67
2019-05-28T22:16:09.320Z,3.60
2019-05-28T22:18:56.203Z,3.23
2019-05-28T22:21:42.247Z,4.10
2019-05-28T22:24:28.347Z,3.53
2019-05-28T22:27:14.359Z,3.60
2019-05-28T22:30:00.691Z,3.80
2019-05-28T22:32:46.598Z,3.70
2019-05-28T22:35:32.793Z,4.07
2019-05-28T22:38:18.795Z,3.80
2019-05-28T22:41:04.887Z,3.53
2019-05-28T22:43:51.080Z,3.40
2019-05-28T22:46:37.127Z,3.90
2019-05-28T22:49:23.237Z,4.10
2019-05-28T22:52:09.155Z,4.00
2019-05-28T22:54:55.192Z,3.90
2019-05-28T22:57:41.398Z,3.77
2019-05-28T23:00:27.573Z,3.73
2019-05-28T23:03:13.580Z,3.60
2019-05-28T23:06:00.848Z,4.00
2019-05-28T23:08:46.886Z,3.80
2019-05-28T23:11:33.037Z,4.17
2019-05-28T23:14:18.661Z,4.10
2019-05-28T23:17:04.833Z,3.70
2019-05-28T23:19:50.908Z,3.80
2019-05-28T23:22:37.172Z,3.50
2019-05-28T23:25:23.172Z,3.50
2019-05-28T23:28:09.812Z,3.90
2019-05-28T23:30:55.971Z,3.90
2019-05-28T23:33:41.988Z,4.00
2019-05-28T23:36:27.723Z,3.73
2019-05-28T23:39:13.872Z,4.07
2019-05-28T23:42:00.013Z,4.30
2019-05-28T23:44:46.245Z,3.93
2019-05-28T23:47:31.853Z,4.10
2019-05-28T23:50:18.283Z,4.50
2019-05-28T23:53:04.183Z,3.93
2019-05-28T23:55:50.269Z,3.60
2019-05-28T23:58:36.488Z,3.77
